Time;durP1;ratioP1;P1;durP2;ratioP2;P2;SDS_P1;SDS_P2;PMS_P1;PMS_P2;Temp;Humidity;BMP_temperature;BMP_pressure;BME280_temperature;BME280_humidity;BME280_pressure;Samples;Min_cycle;Max_cycle;Signal;HPM_P1;HPM_P2
2022/02/14 00:00:25;;;;;;;6.53;2.70;;;;;;;;;;5079747;28;20217;-65
2022/02/14 00:02:53;;;;;;;4.73;2.97;;;;;;;;;;5066123;28;20209;-65
2022/02/14 00:05:22;;;;;;;5.33;2.80;;;;;;;;;;5079093;28;20244;-65
2022/02/14 00:07:50;;;;;;;7.20;2.87;;;;;;;;;;5079444;28;20221;-65
2022/02/14 00:10:18;;;;;;;6.30;2.73;;;;;;;;;;5079350;28;20202;-64
2022/02/14 00:12:46;;;;;;;8.70;2.70;;;;;;;;;;5079171;28;20214;-65
2022/02/14 00:15:14;;;;;;;8.30;3.57;;;;;;;;;;5079227;28;20210;-64
2022/02/14 00:17:42;;;;;;;4.73;2.93;;;;;;;;;;5074830;28;20231;-65
2022/02/14 00:20:11;;;;;;;5.03;3.00;;;;;;;;;;5074266;28;20215;-64
2022/02/14 00:22:40;;;;;;;3.20;2.73;;;;;;;;;;5078665;28;20242;-65
2022/02/14 00:25:09;;;;;;;5.07;2.87;;;;;;;;;;5079043;28;20317;-65
2022/02/14 00:27:37;;;;;;;7.17;3.37;;;;;;;;;;5078122;28;20232;-65
2022/02/14 00:30:05;;;;;;;4.27;2.87;;;;;;;;;;5078667;28;20565;-65
2022/02/14 00:32:34;;;;;;;7.23;2.87;;;;;;;;;;5078453;28;20674;-65
2022/02/14 00:35:02;;;;;;;6.37;3.40;;;;;;;;;;5078498;28;20576;-64
2022/02/14 00:37:30;;;;;;;7.33;2.20;;;;;;;;;;5078539;28;20244;-65
2022/02/14 00:39:59;;;;;;;9.43;3.20;;;;;;;;;;5078541;28;20603;-65
2022/02/14 00:42:27;;;;;;;7.60;3.77;;;;;;;;;;5078535;28;20206;-65
2022/02/14 00:44:55;;;;;;;7.07;3.60;;;;;;;;;;5078755;28;20212;-64
2022/02/14 00:47:23;;;;;;;12.20;4.20;;;;;;;;;;5078273;28;20226;-65
2022/02/14 00:49:51;;;;;;;4.77;3.40;;;;;;;;;;5078413;28;20295;-64
2022/02/14 00:52:19;;;;;;;6.60;3.70;;;;;;;;;;5078370;28;20201;-65
2022/02/14 00:54:47;;;;;;;11.37;3.17;;;;;;;;;;5078223;28;20297;-65
2022/02/14 00:57:17;;;;;;;11.87;3.10;;;;;;;;;;5073136;28;20225;-65
2022/02/14 00:59:45;;;;;;;5.87;2.63;;;;;;;;;;5065120;28;20210;-65
2022/02/14 01:02:12;;;;;;;5.07;2.83;;;;;;;;;;5078492;28;20212;-65
2022/02/14 01:04:40;;;;;;;6.80;2.57;;;;;;;;;;5078255;28;20216;-65
2022/02/14 01:07:08;;;;;;;5.07;2.70;;;;;;;;;;5078151;28;20237;-65
2022/02/14 01:09:36;;;;;;;5.47;3.00;;;;;;;;;;5078352;28;20216;-64
2022/02/14 01:12:04;;;;;;;4.57;2.17;;;;;;;;;;5078217;28;20206;-65
2022/02/14 01:14:34;;;;;;;5.97;2.40;;;;;;;;;;5078079;28;20210;-64
2022/02/14 01:17:02;;;;;;;4.30;2.63;;;;;;;;;;5077930;28;20222;-64
2022/02/14 01:19:30;;;;;;;4.03;2.23;;;;;;;;;;5068724;28;20564;-64
2022/02/14 01:21:58;;;;;;;9.40;2.37;;;;;;;;;;5077585;28;20238;-65
2022/02/14 01:24:26;;;;;;;8.53;2.43;;;;;;;;;;5077938;28;20679;-65
2022/02/14 01:26:54;;;;;;;6.00;2.77;;;;;;;;;;5077698;28;20237;-65
2022/02/14 01:29:22;;;;;;;5.13;2.40;;;;;;;;;;5077912;28;20221;-65
2022/02/14 01:31:51;;;;;;;5.77;2.10;;;;;;;;;;5077694;28;20320;-65
2022/02/14 01:34:19;;;;;;;6.00;2.00;;;;;;;;;;5077797;28;20217;-65
2022/02/14 01:36:47;;;;;;;5.70;2.20;;;;;;;;;;5077796;28;20226;-65
2022/02/14 01:39:15;;;;;;;9.07;2.77;;;;;;;;;;5077081;28;20209;-65
2022/02/14 01:41:43;;;;;;;7.43;2.57;;;;;;;;;;5077700;28;20202;-65
2022/02/14 01:44:11;;;;;;;6.80;3.00;;;;;;;;;;5077588;28;20237;-64
2022/02/14 01:46:40;;;;;;;6.57;2.77;;;;;;;;;;5077314;28;20233;-64
2022/02/14 01:49:09;;;;;;;4.60;2.90;;;;;;;;;;5077553;28;20588;-65
2022/02/14 01:51:37;;;;;;;9.67;2.60;;;;;;;;;;5077408;28;20210;-65
2022/02/14 01:54:05;;;;;;;4.27;2.70;;;;;;;;;;5077803;28;20212;-65
2022/02/14 01:56:33;;;;;;;6.60;2.23;;;;;;;;;;5077609;28;20263;-64
2022/02/14 01:59:03;;;;;;;3.53;2.17;;;;;;;;;;5077437;28;20677;-64
2022/02/14 02:01:31;;;;;;;9.93;2.50;;;;;;;;;;5077695;28;20720;-65
2022/02/14 02:03:59;;;;;;;6.27;2.37;;;;;;;;;;5077528;28;20208;-64
2022/02/14 02:06:29;;;;;;;3.10;2.27;;;;;;;;;;5077274;28;20605;-64
2022/02/14 02:08:57;;;;;;;6.17;2.20;;;;;;;;;;5077544;28;20217;-64
2022/02/14 02:14:10;;;;;;;4.60;2.53;;;;;;;;;;5077046;28;20243;-64
2022/02/14 02:16:38;;;;;;;6.47;2.57;;;;;;;;;;5077427;28;20226;-64
2022/02/14 02:19:08;;;;;;;3.97;2.87;;;;;;;;;;5068154;28;20210;-64
2022/02/14 02:21:37;;;;;;;8.90;3.10;;;;;;;;;;5076894;28;20329;-64
2022/02/14 02:24:09;;;;;;;4.37;2.77;;;;;;;;;;5077460;28;20214;-65
2022/02/14 02:26:39;;;;;;;7.90;2.97;;;;;;;;;;5077222;28;20234;-65
2022/02/14 02:29:07;;;;;;;5.87;2.90;;;;;;;;;;5077192;28;20646;-64
2022/02/14 02:31:36;;;;;;;7.90;2.60;;;;;;;;;;5077166;28;20289;-65
2022/02/14 02:34:05;;;;;;;5.47;2.30;;;;;;;;;;5077225;28;20202;-65
2022/02/14 02:36:33;;;;;;;5.67;2.30;;;;;;;;;;5077100;28;20224;-65
2022/02/14 02:39:01;;;;;;;5.43;2.60;;;;;;;;;;5077080;28;20216;-64
2022/02/14 02:41:29;;;;;;;4.87;2.17;;;;;;;;;;5077190;28;20206;-65
2022/02/14 02:43:59;;;;;;;7.93;2.93;;;;;;;;;;5076590;28;20213;-65
2022/02/14 02:46:27;;;;;;;5.60;1.90;;;;;;;;;;5076975;28;20237;-65
2022/02/14 02:48:55;;;;;;;4.17;2.57;;;;;;;;;;5077155;28;20210;-65
2022/02/14 02:51:23;;;;;;;3.73;2.43;;;;;;;;;;5079333;28;20207;-65
2022/02/14 02:53:51;;;;;;;6.47;2.20;;;;;;;;;;5080660;28;20212;-65
2022/02/14 02:56:19;;;;;;;4.03;2.43;;;;;;;;;;5080554;28;20229;-65
2022/02/14 02:58:47;;;;;;;3.90;2.03;;;;;;;;;;5080447;28;20202;-65
2022/02/14 03:01:17;;;;;;;7.70;2.77;;;;;;;;;;5080801;28;20210;-65
2022/02/14 03:03:45;;;;;;;3.63;2.10;;;;;;;;;;5080328;28;20212;-65
2022/02/14 03:06:13;;;;;;;5.33;3.00;;;;;;;;;;5080315;28;20244;-65
2022/02/14 03:08:41;;;;;;;3.80;2.43;;;;;;;;;;5080182;28;20585;-65
2022/02/14 03:11:09;;;;;;;3.00;2.43;;;;;;;;;;5080340;28;20202;-65
2022/02/14 03:13:37;;;;;;;7.20;2.67;;;;;;;;;;5080006;28;20233;-65
2022/02/14 03:16:05;;;;;;;5.70;2.87;;;;;;;;;;5080552;28;20226;-65
2022/02/14 03:18:35;;;;;;;4.80;3.20;;;;;;;;;;5070946;28;20588;-65
2022/02/14 03:21:03;;;;;;;5.27;3.40;;;;;;;;;;5080510;28;20202;-64
2022/02/14 03:23:31;;;;;;;3.53;3.23;;;;;;;;;;5080000;28;20238;-65
2022/02/14 03:25:59;;;;;;;6.23;2.63;;;;;;;;;;5080311;28;20229;-65
2022/02/14 03:28:27;;;;;;;2.83;2.13;;;;;;;;;;5079827;28;20232;-65
2022/02/14 03:30:55;;;;;;;3.30;1.83;;;;;;;;;;5080425;28;20220;-65
2022/02/14 03:33:23;;;;;;;5.07;2.50;;;;;;;;;;5079921;28;20674;-65
2022/02/14 03:35:53;;;;;;;3.53;2.30;;;;;;;;;;5080052;28;20206;-65
2022/02/14 03:38:21;;;;;;;9.40;2.13;;;;;;;;;;5080102;28;20203;-65
2022/02/14 03:40:49;;;;;;;5.67;2.57;;;;;;;;;;5079810;28;20289;-65
2022/02/14 03:43:17;;;;;;;8.03;2.20;;;;;;;;;;5079250;28;20576;-65
2022/02/14 03:45:45;;;;;;;5.20;2.03;;;;;;;;;;5079701;28;20569;-65
2022/02/14 03:48:13;;;;;;;4.20;1.73;;;;;;;;;;5079616;28;20237;-65
2022/02/14 03:50:40;;;;;;;5.27;2.00;;;;;;;;;;5079688;28;20219;-65
2022/02/14 03:53:10;;;;;;;2.80;1.60;;;;;;;;;;5079776;28;20225;-65
2022/02/14 03:55:38;;;;;;;2.93;2.10;;;;;;;;;;5079239;28;20585;-64
2022/02/14 03:58:07;;;;;;;4.23;2.30;;;;;;;;;;5079565;28;20202;-65
2022/02/14 04:00:35;;;;;;;2.63;1.90;;;;;;;;;;5079593;28;20293;-65
2022/02/14 04:03:03;;;;;;;6.63;1.87;;;;;;;;;;5078211;28;20289;-65
2022/02/14 04:05:31;;;;;;;2.13;1.70;;;;;;;;;;5079638;28;20216;-65
2022/02/14 04:07:59;;;;;;;5.20;1.90;;;;;;;;;;5079213;28;20228;-65
2022/02/14 04:10:28;;;;;;;8.53;2.27;;;;;;;;;;5079538;28;20210;-65
2022/02/14 04:12:56;;;;;;;7.93;2.33;;;;;;;;;;5079189;28;20206;-65
2022/02/14 04:15:26;;;;;;;2.77;1.97;;;;;;;;;;5079307;28;20234;-65
2022/02/14 04:17:54;;;;;;;6.90;2.00;;;;;;;;;;5073234;28;20223;-65
2022/02/14 04:20:22;;;;;;;4.03;2.13;;;;;;;;;;5075887;28;20206;-65
2022/02/14 04:22:51;;;;;;;4.17;2.10;;;;;;;;;;5078896;28;20592;-65
2022/02/14 04:25:19;;;;;;;4.07;2.07;;;;;;;;;;5078958;28;20214;-65
2022/02/14 04:27:48;;;;;;;2.63;2.17;;;;;;;;;;5078396;28;20242;-65
2022/02/14 04:30:16;;;;;;;5.50;2.13;;;;;;;;;;5078758;28;20210;-65
2022/02/14 04:32:44;;;;;;;2.13;1.90;;;;;;;;;;5078507;28;20214;-64
2022/02/14 04:35:12;;;;;;;3.37;1.97;;;;;;;;;;5078963;28;20210;-65
2022/02/14 04:37:40;;;;;;;6.60;2.00;;;;;;;;;;5078890;28;20218;-65
2022/02/14 04:40:08;;;;;;;3.93;2.00;;;;;;;;;;5078842;28;20210;-65
2022/02/14 04:42:36;;;;;;;4.73;2.57;;;;;;;;;;5078645;28;20218;-65
2022/02/14 04:45:06;;;;;;;6.23;2.30;;;;;;;;;;5078569;28;20206;-65
2022/02/14 04:47:35;;;;;;;7.60;2.50;;;;;;;;;;5078254;28;20244;-65
2022/02/14 04:50:03;;;;;;;3.37;2.17;;;;;;;;;;5078741;28;20210;-65
2022/02/14 04:52:31;;;;;;;6.27;1.93;;;;;;;;;;5078410;28;20206;-65
2022/02/14 04:54:59;;;;;;;6.10;2.20;;;;;;;;;;5078588;28;20209;-65
2022/02/14 04:57:27;;;;;;;3.97;2.43;;;;;;;;;;5077894;28;20221;-65
2022/02/14 04:59:55;;;;;;;4.67;1.80;;;;;;;;;;5078104;28;20596;-65
2022/02/14 05:02:24;;;;;;;3.40;1.73;;;;;;;;;;5078452;28;20214;-65
2022/02/14 05:04:52;;;;;;;5.70;2.00;;;;;;;;;;5078135;28;20735;-65
2022/02/14 05:07:20;;;;;;;3.17;2.60;;;;;;;;;;5077934;28;20712;-65
2022/02/14 05:09:48;;;;;;;5.73;3.40;;;;;;;;;;5078176;28;20206;-65
2022/02/14 05:12:16;;;;;;;5.93;2.03;;;;;;;;;;5075670;28;20202;-65
2022/02/14 05:14:44;;;;;;;3.67;2.13;;;;;;;;;;5077754;28;20543;-65
2022/02/14 05:17:12;;;;;;;4.77;2.13;;;;;;;;;;5077744;28;20218;-65
2022/02/14 05:19:42;;;;;;;4.17;1.67;;;;;;;;;;5075735;28;20607;-65
2022/02/14 05:22:10;;;;;;;6.13;2.50;;;;;;;;;;5074408;28;20234;-65
2022/02/14 05:24:38;;;;;;;3.77;2.10;;;;;;;;;;5070107;28;20684;-65
2022/02/14 05:27:08;;;;;;;7.50;2.00;;;;;;;;;;5077665;28;20248;-65
2022/02/14 05:29:36;;;;;;;2.37;1.63;;;;;;;;;;5077775;28;20229;-65
2022/02/14 05:32:04;;;;;;;8.30;2.57;;;;;;;;;;5072651;28;20206;-65
2022/02/14 05:34:32;;;;;;;4.60;1.80;;;;;;;;;;5077792;28;20202;-65
2022/02/14 05:37:02;;;;;;;4.07;2.00;;;;;;;;;;5077440;28;20236;-65
2022/02/14 05:39:30;;;;;;;3.07;1.60;;;;;;;;;;5077660;28;20202;-65
2022/02/14 05:41:57;;;;;;;3.17;2.07;;;;;;;;;;5077876;28;20210;-65
2022/02/14 05:44:25;;;;;;;4.57;1.67;;;;;;;;;;5077499;28;20202;-65
2022/02/14 05:46:53;;;;;;;3.40;1.93;;;;;;;;;;5077699;28;20253;-64
2022/02/14 05:49:21;;;;;;;3.70;1.73;;;;;;;;;;5077656;28;20222;-64
2022/02/14 05:51:49;;;;;;;5.23;2.23;;;;;;;;;;5077865;28;20216;-65
2022/02/14 05:54:19;;;;;;;3.77;1.80;;;;;;;;;;5077254;28;20217;-65
2022/02/14 05:56:47;;;;;;;6.77;2.30;;;;;;;;;;5075620;28;20228;-64
2022/02/14 05:59:15;;;;;;;6.03;2.20;;;;;;;;;;5074510;28;20197;-65
2022/02/14 06:01:43;;;;;;;2.33;1.90;;;;;;;;;;5077286;28;20209;-65
2022/02/14 06:04:12;;;;;;;2.67;1.73;;;;;;;;;;5076386;28;20209;-65
2022/02/14 06:06:40;;;;;;;5.27;1.97;;;;;;;;;;5072683;28;20222;-64
2022/02/14 06:09:08;;;;;;;3.43;1.70;;;;;;;;;;5076533;28;20602;-64
2022/02/14 06:11:37;;;;;;;6.50;2.03;;;;;;;;;;5076913;28;20198;-65
2022/02/14 06:14:05;;;;;;;5.40;1.90;;;;;;;;;;5075204;28;20205;-65
2022/02/14 06:16:33;;;;;;;4.77;1.90;;;;;;;;;;5076912;28;20218;-65
2022/02/14 06:19:01;;;;;;;4.83;1.80;;;;;;;;;;5075427;28;20235;-65
2022/02/14 06:21:29;;;;;;;4.00;1.60;;;;;;;;;;5076630;28;20225;-65
2022/02/14 06:23:57;;;;;;;4.33;1.40;;;;;;;;;;5064053;28;20216;-65
2022/02/14 06:26:25;;;;;;;3.57;1.77;;;;;;;;;;5073007;28;20225;-65
2022/02/14 06:28:55;;;;;;;2.70;1.60;;;;;;;;;;5067286;28;20225;-65
2022/02/14 06:31:26;;;;;;;4.43;1.40;;;;;;;;;;5066376;28;20195;-65
2022/02/14 06:33:54;;;;;;;4.53;1.80;;;;;;;;;;5068835;28;20658;-65
2022/02/14 06:36:26;;;;;;;2.87;1.40;;;;;;;;;;5068787;28;20236;-65
2022/02/14 06:38:54;;;;;;;1.53;1.23;;;;;;;;;;5068486;28;20607;-66
2022/02/14 06:41:23;;;;;;;3.27;1.17;;;;;;;;;;5067820;28;20198;-66
2022/02/14 06:43:51;;;;;;;4.73;1.83;;;;;;;;;;5068229;28;20202;-66
2022/02/14 06:46:21;;;;;;;3.40;1.43;;;;;;;;;;5071940;28;20229;-65
2022/02/14 06:48:49;;;;;;;2.30;1.30;;;;;;;;;;5068765;28;20305;-66
2022/02/14 06:51:17;;;;;;;1.20;1.10;;;;;;;;;;5070058;28;20265;-65
2022/02/14 06:53:47;;;;;;;1.80;1.23;;;;;;;;;;5069450;28;20264;-66
2022/02/14 06:56:15;;;;;;;3.00;1.60;;;;;;;;;;5073239;28;20218;-65
2022/02/14 06:58:43;;;;;;;1.33;1.10;;;;;;;;;;5067625;28;20255;-65
2022/02/14 07:01:11;;;;;;;1.33;1.00;;;;;;;;;;5068324;28;20202;-66
2022/02/14 07:03:41;;;;;;;1.30;1.20;;;;;;;;;;5070408;28;20246;-66
2022/02/14 07:06:09;;;;;;;1.47;1.03;;;;;;;;;;5079846;28;20234;-66
2022/02/14 07:08:37;;;;;;;2.23;1.30;;;;;;;;;;5080154;28;20577;-66
2022/02/14 07:11:06;;;;;;;1.47;1.33;;;;;;;;;;5080350;28;20245;-66
2022/02/14 07:13:34;;;;;;;1.70;1.20;;;;;;;;;;5080077;28;20292;-66
2022/02/14 07:16:05;;;;;;;0.83;0.80;;;;;;;;;;5080149;28;20280;-66
2022/02/14 07:18:33;;;;;;;2.33;1.03;;;;;;;;;;5079779;28;20206;-66
2022/02/14 07:21:03;;;;;;;1.33;1.03;;;;;;;;;;5079795;28;20685;-66
2022/02/14 07:23:31;;;;;;;2.40;1.03;;;;;;;;;;5079555;28;20270;-66
2022/02/14 07:26:00;;;;;;;1.10;1.10;;;;;;;;;;5080006;28;20309;-66
2022/02/14 07:28:28;;;;;;;2.37;1.40;;;;;;;;;;5076710;28;20225;-66
2022/02/14 07:30:56;;;;;;;0.90;0.90;;;;;;;;;;5065800;28;20337;-66
2022/02/14 07:33:24;;;;;;;3.63;1.00;;;;;;;;;;5067455;28;20230;-65
2022/02/14 07:35:52;;;;;;;1.27;1.10;;;;;;;;;;5069043;28;20217;-65
2022/02/14 07:38:22;;;;;;;4.70;1.50;;;;;;;;;;5066206;28;20210;-66
2022/02/14 07:40:51;;;;;;;2.83;1.80;;;;;;;;;;5068171;28;20222;-65
2022/02/14 07:43:19;;;;;;;2.97;1.27;;;;;;;;;;5066336;28;20322;-65
2022/02/14 07:45:47;;;;;;;1.80;1.33;;;;;;;;;;5067455;28;20210;-65
2022/02/14 07:48:15;;;;;;;4.77;1.47;;;;;;;;;;5075172;28;20274;-65
2022/02/14 07:50:43;;;;;;;2.43;1.50;;;;;;;;;;5088097;28;20254;-65
2022/02/14 07:53:11;;;;;;;3.50;1.17;;;;;;;;;;5088928;28;20197;-65
2022/02/14 07:55:41;;;;;;;2.40;1.27;;;;;;;;;;5087940;28;20206;-65
2022/02/14 07:58:09;;;;;;;1.00;1.00;;;;;;;;;;5087713;28;20280;-65
2022/02/14 08:00:37;;;;;;;2.20;1.30;;;;;;;;;;5081635;28;20195;-65
2022/02/14 08:03:08;;;;;;;1.67;1.50;;;;;;;;;;5065317;28;20199;-64
2022/02/14 08:05:36;;;;;;;6.93;1.50;;;;;;;;;;5066064;28;20281;-65
2022/02/14 08:08:04;;;;;;;3.40;1.40;;;;;;;;;;5064219;28;20203;-65
2022/02/14 08:10:54;;;;;;;2.77;1.30;;;;;;;;;;5063396;28;20223;-65
2022/02/14 08:13:23;;;;;;;1.30;1.20;;;;;;;;;;5063484;28;20286;-65
2022/02/14 08:15:51;;;;;;;6.20;2.80;;;;;;;;;;5065506;28;20203;-65
2022/02/14 08:18:19;;;;;;;2.80;1.60;;;;;;;;;;5063273;28;20282;-65
2022/02/14 08:20:47;;;;;;;3.47;1.73;;;;;;;;;;5079032;28;20206;-65
2022/02/14 08:23:15;;;;;;;3.23;1.33;;;;;;;;;;5078612;28;20238;-65
2022/02/14 08:25:43;;;;;;;3.23;1.40;;;;;;;;;;5078803;28;20210;-65
2022/02/14 08:28:16;;;;;;;3.27;1.13;;;;;;;;;;5078540;28;20214;-65
2022/02/14 08:30:44;;;;;;;2.97;1.13;;;;;;;;;;5078575;28;20230;-65
2022/02/14 08:33:13;;;;;;;4.13;1.20;;;;;;;;;;5078614;28;20202;-65
2022/02/14 08:35:41;;;;;;;4.07;1.90;;;;;;;;;;5078308;28;20259;-65
2022/02/14 08:38:09;;;;;;;2.40;1.47;;;;;;;;;;5075017;28;20234;-65
2022/02/14 08:40:37;;;;;;;3.73;2.07;;;;;;;;;;5076214;28;20568;-65
2022/02/14 08:43:05;;;;;;;3.50;1.47;;;;;;;;;;5077949;28;20298;-65
2022/02/14 08:45:55;;;;;;;1.30;1.10;;;;;;;;;;5078275;28;20226;-65
2022/02/14 08:48:23;;;;;;;3.23;1.30;;;;;;;;;;5077953;28;20210;-65
2022/02/14 08:50:51;;;;;;;1.57;1.07;;;;;;;;;;5078530;28;20261;-65
2022/02/14 08:53:21;;;;;;;1.67;1.10;;;;;;;;;;5077991;28;20665;-65
2022/02/14 08:55:50;;;;;;;3.60;1.37;;;;;;;;;;5078268;28;20292;-65
2022/02/14 08:58:18;;;;;;;4.13;1.20;;;;;;;;;;5077788;28;20289;-65
2022/02/14 09:00:48;;;;;;;2.07;1.13;;;;;;;;;;5078233;28;20202;-65
2022/02/14 09:03:18;;;;;;;1.87;1.00;;;;;;;;;;5078133;28;20240;-65
2022/02/14 09:05:46;;;;;;;1.60;0.80;;;;;;;;;;5078124;28;20252;-65
2022/02/14 09:08:14;;;;;;;1.17;0.90;;;;;;;;;;5077687;28;20236;-65
2022/02/14 09:10:43;;;;;;;2.70;1.07;;;;;;;;;;5078073;28;20226;-65
2022/02/14 09:13:11;;;;;;;0.87;0.70;;;;;;;;;;5077507;28;20206;-65
2022/02/14 09:15:39;;;;;;;1.43;1.10;;;;;;;;;;5077376;28;20293;-65
2022/02/14 09:18:07;;;;;;;2.60;1.00;;;;;;;;;;5068469;28;20209;-65
2022/02/14 09:20:37;;;;;;;1.63;1.20;;;;;;;;;;5064465;28;20202;-65
2022/02/14 09:23:05;;;;;;;4.33;1.10;;;;;;;;;;5066247;28;20238;-64
2022/02/14 09:25:33;;;;;;;1.83;0.93;;;;;;;;;;5065489;28;20199;-64
2022/02/14 09:28:02;;;;;;;2.43;1.00;;;;;;;;;;5076477;28;20226;-64
2022/02/14 09:30:31;;;;;;;0.97;0.90;;;;;;;;;;5076962;28;20313;-64
2022/02/14 09:32:59;;;;;;;1.03;0.93;;;;;;;;;;5077492;28;20210;-64
2022/02/14 09:35:27;;;;;;;3.23;1.10;;;;;;;;;;5077662;28;20265;-64
2022/02/14 09:37:57;;;;;;;2.87;1.40;;;;;;;;;;5077501;28;20226;-64
2022/02/14 09:40:26;;;;;;;2.07;1.20;;;;;;;;;;5077464;28;20202;-64
2022/02/14 09:43:08;;;;;;;1.57;1.47;;;;;;;;;;5075772;28;20671;-64
2022/02/14 09:45:37;;;;;;;2.03;1.10;;;;;;;;;;5063249;28;20226;-64
2022/02/14 09:48:06;;;;;;;3.60;1.00;;;;;;;;;;5064247;28;20203;-64
2022/02/14 09:50:35;;;;;;;2.83;1.10;;;;;;;;;;5065198;28;20306;-64
2022/02/14 09:53:06;;;;;;;2.13;1.00;;;;;;;;;;5064511;28;20667;-64
2022/02/14 09:55:40;;;;;;;4.53;1.10;;;;;;;;;;5066868;28;20241;-64
2022/02/14 09:58:08;;;;;;;1.30;1.20;;;;;;;;;;5064058;28;20206;-65
2022/02/14 10:00:43;;;;;;;1.93;0.90;;;;;;;;;;5063157;28;20336;-64
2022/02/14 10:03:14;;;;;;;0.60;0.60;;;;;;;;;;5065194;28;20210;-65
2022/02/14 10:05:43;;;;;;;1.13;1.03;;;;;;;;;;5068247;28;20209;-64
2022/02/14 10:08:12;;;;;;;0.67;0.63;;;;;;;;;;5086459;28;20202;-65
2022/02/14 10:10:42;;;;;;;0.83;0.70;;;;;;;;;;5083017;28;20305;-65
2022/02/14 10:13:10;;;;;;;1.10;1.00;;;;;;;;;;5077012;28;20243;-65
2022/02/14 10:15:49;;;;;;;1.13;1.00;;;;;;;;;;5077060;28;20729;-65
2022/02/14 10:18:27;;;;;;;2.40;0.93;;;;;;;;;;5074798;28;20961;-64
2022/02/14 10:21:19;;;;;;;2.67;0.70;;;;;;;;;;5078685;28;20202;-64
2022/02/14 10:23:59;;;;;;;1.50;0.60;;;;;;;;;;5084008;28;20229;-64
2022/02/14 10:26:30;;;;;;;1.70;0.80;;;;;;;;;;5085322;28;20255;-65
2022/02/14 10:28:58;;;;;;;1.20;1.10;;;;;;;;;;5089614;28;20238;-62
2022/02/14 10:31:27;;;;;;;2.00;1.17;;;;;;;;;;5081623;28;20332;-64
2022/02/14 10:33:56;;;;;;;2.07;1.10;;;;;;;;;;5076662;28;20259;-63
2022/02/14 10:36:27;;;;;;;0.80;0.73;;;;;;;;;;5076609;28;20664;-64
2022/02/14 10:38:55;;;;;;;0.93;0.77;;;;;;;;;;5076844;28;20289;-63
2022/02/14 10:41:27;;;;;;;2.47;1.20;;;;;;;;;;5076781;28;20203;-65
2022/02/14 10:44:04;;;;;;;0.50;0.50;;;;;;;;;;5076778;28;20202;-63
2022/02/14 10:46:32;;;;;;;0.83;0.80;;;;;;;;;;5073904;28;20249;-65
2022/02/14 10:49:01;;;;;;;2.93;0.83;;;;;;;;;;5066354;28;20214;-63
2022/02/14 10:51:53;;;;;;;1.80;0.70;;;;;;;;;;5076553;28;20258;-63
2022/02/14 10:54:21;;;;;;;0.90;0.90;;;;;;;;;;5074710;28;20198;-63
2022/02/14 10:56:51;;;;;;;2.77;1.07;;;;;;;;;;5085033;28;20706;-65
2022/02/14 10:59:20;;;;;;;5.67;4.07;;;;;;;;;;5085935;28;20194;-63
2022/02/14 11:01:48;;;;;;;3.20;1.40;;;;;;;;;;5086548;28;20258;-62
2022/02/14 11:04:16;;;;;;;1.00;1.00;;;;;;;;;;5083546;28;21543;-62
2022/02/14 11:06:44;;;;;;;1.80;0.80;;;;;;;;;;5083563;28;20248;-62
2022/02/14 11:09:12;;;;;;;0.70;0.70;;;;;;;;;;5085380;28;20234;-64
2022/02/14 11:11:40;;;;;;;1.70;0.80;;;;;;;;;;5085253;28;20215;-64
2022/02/14 11:14:13;;;;;;;2.50;0.90;;;;;;;;;;5082079;28;20256;-64
2022/02/14 11:16:42;;;;;;;1.23;1.07;;;;;;;;;;5079931;28;20697;-64
2022/02/14 11:19:11;;;;;;;3.00;1.00;;;;;;;;;;5082753;28;20206;-64
2022/02/14 11:21:40;;;;;;;2.10;1.30;;;;;;;;;;5079973;28;20240;-64
2022/02/14 11:24:18;;;;;;;1.10;1.10;;;;;;;;;;5070646;28;20208;-64
2022/02/14 11:26:55;;;;;;;0.90;0.90;;;;;;;;;;5080016;28;20225;-64
2022/02/14 11:29:39;;;;;;;2.20;0.83;;;;;;;;;;5079888;28;20243;-64
2022/02/14 11:32:20;;;;;;;1.00;1.00;;;;;;;;;;5079917;28;20707;-64
2022/02/14 11:34:52;;;;;;;2.30;1.00;;;;;;;;;;5079883;28;20216;-64
2022/02/14 11:37:20;;;;;;;3.63;1.43;;;;;;;;;;5084677;28;20222;-64
2022/02/14 11:39:48;;;;;;;5.30;1.50;;;;;;;;;;5085664;28;20205;-64
2022/02/14 11:42:16;;;;;;;1.97;1.50;;;;;;;;;;5076285;28;20200;-64
2022/02/14 11:44:46;;;;;;;2.33;1.33;;;;;;;;;;5076713;28;20194;-64
2022/02/14 11:47:19;;;;;;;1.77;1.30;;;;;;;;;;5082939;28;20707;-64
2022/02/14 11:49:48;;;;;;;2.10;0.90;;;;;;;;;;5085716;28;20610;-61
2022/02/14 11:52:34;;;;;;;1.07;1.07;;;;;;;;;;5088441;28;20228;-64
2022/02/14 11:55:03;;;;;;;1.47;1.30;;;;;;;;;;5084067;28;20240;-64
2022/02/14 11:57:33;;;;;;;1.17;1.07;;;;;;;;;;5079138;28;20309;-64
2022/02/14 12:00:26;;;;;;;2.80;1.30;;;;;;;;;;5079696;28;20289;-64
2022/02/14 12:03:18;;;;;;;1.07;1.00;;;;;;;;;;5079468;28;20289;-64
2022/02/14 12:05:47;;;;;;;1.90;1.50;;;;;;;;;;5079006;28;20668;-64
2022/02/14 12:08:15;;;;;;;3.80;1.50;;;;;;;;;;5079289;28;20206;-64
2022/02/14 12:10:45;;;;;;;1.27;1.17;;;;;;;;;;5079253;28;20202;-62
2022/02/14 12:13:17;;;;;;;3.57;1.80;;;;;;;;;;5078812;28;20232;-62
2022/02/14 12:21:19;;;;;;;2.33;1.73;;;;;;;;;;5078549;28;20209;-64
2022/02/14 12:24:15;;;;;;;2.77;1.67;;;;;;;;;;5071278;28;20221;-64
2022/02/14 12:26:49;;;;;;;4.23;1.97;;;;;;;;;;5078515;28;20585;-65
2022/02/14 12:32:08;;;;;;;2.80;2.40;;;;;;;;;;5078465;28;20740;-65
2022/02/14 12:34:37;;;;;;;2.60;2.10;;;;;;;;;;5078983;28;20213;-65
2022/02/14 12:37:07;;;;;;;2.27;2.13;;;;;;;;;;5079027;28;20226;-66
2022/02/14 12:39:36;;;;;;;2.97;2.40;;;;;;;;;;5073313;28;20216;-65
2022/02/14 12:42:14;;;;;;;2.07;1.90;;;;;;;;;;5082904;28;20203;-63
2022/02/14 12:44:43;;;;;;;3.93;2.20;;;;;;;;;;5077958;28;20208;-63
2022/02/14 12:47:13;;;;;;;2.57;1.60;;;;;;;;;;5078092;28;20601;-64
2022/02/14 12:49:42;;;;;;;2.00;1.30;;;;;;;;;;5078883;28;20214;-64
2022/02/14 12:52:12;;;;;;;1.67;1.57;;;;;;;;;;5078310;28;20230;-64
2022/02/14 12:54:51;;;;;;;3.53;1.30;;;;;;;;;;5078431;28;20696;-62
2022/02/14 12:57:32;;;;;;;2.50;1.40;;;;;;;;;;5077653;28;20222;-64
2022/02/14 13:00:00;;;;;;;1.70;1.60;;;;;;;;;;5077994;28;20687;-64
2022/02/14 13:02:30;;;;;;;2.07;1.40;;;;;;;;;;5078030;28;20202;-64
2022/02/14 13:04:58;;;;;;;3.60;1.50;;;;;;;;;;5078680;28;20305;-63
2022/02/14 13:07:26;;;;;;;6.10;1.90;;;;;;;;;;5078008;28;20226;-63
2022/02/14 13:10:01;;;;;;;4.57;2.27;;;;;;;;;;5078198;28;20688;-64
2022/02/14 13:12:29;;;;;;;1.70;1.60;;;;;;;;;;5078063;28;20229;-64
2022/02/14 13:15:04;;;;;;;2.80;2.13;;;;;;;;;;5078105;28;20202;-64
2022/02/14 13:17:33;;;;;;;4.87;2.10;;;;;;;;;;5075050;28;20238;-63
2022/02/14 13:20:02;;;;;;;6.83;2.40;;;;;;;;;;5072337;28;20585;-62
2022/02/14 13:22:34;;;;;;;5.80;2.50;;;;;;;;;;5077878;28;20233;-64
2022/02/14 13:25:16;;;;;;;3.73;2.53;;;;;;;;;;5078116;28;20206;-62
2022/02/14 13:27:44;;;;;;;3.80;1.90;;;;;;;;;;5077550;28;20305;-62
2022/02/14 13:30:13;;;;;;;3.63;1.40;;;;;;;;;;5077918;28;20212;-67
2022/02/14 13:33:18;;;;;;;2.30;1.80;;;;;;;;;;5077293;28;20314;-66
2022/02/14 13:35:46;;;;;;;2.93;1.67;;;;;;;;;;5077844;28;20210;-67
2022/02/14 13:38:15;;;;;;;1.57;1.30;;;;;;;;;;5077873;28;20284;-66
2022/02/14 13:40:45;;;;;;;1.43;1.10;;;;;;;;;;5077887;28;20213;-67
2022/02/14 13:43:17;;;;;;;1.20;1.10;;;;;;;;;;5077399;28;20285;-66
2022/02/14 13:45:47;;;;;;;1.33;1.23;;;;;;;;;;5077244;28;20202;-68
2022/02/14 13:48:16;;;;;;;1.00;0.90;;;;;;;;;;5077544;28;20218;-62
2022/02/14 13:50:45;;;;;;;2.57;1.60;;;;;;;;;;5077738;28;20206;-62
2022/02/14 13:53:20;;;;;;;1.13;1.10;;;;;;;;;;5077948;28;20226;-64
2022/02/14 13:56:01;;;;;;;2.53;1.17;;;;;;;;;;5077334;28;20216;-63
2022/02/14 13:58:29;;;;;;;1.10;1.10;;;;;;;;;;5077348;28;20297;-63
2022/02/14 14:00:57;;;;;;;1.20;1.17;;;;;;;;;;5077671;28;20638;-63
2022/02/14 14:03:26;;;;;;;3.93;1.67;;;;;;;;;;5077770;28;20206;-63
2022/02/14 14:05:56;;;;;;;2.57;1.37;;;;;;;;;;5077641;28;20237;-63
2022/02/14 14:08:34;;;;;;;3.07;1.67;;;;;;;;;;5077451;28;20221;-63
2022/02/14 14:11:02;;;;;;;2.77;1.60;;;;;;;;;;5077678;28;20293;-63
2022/02/14 14:13:40;;;;;;;2.27;1.47;;;;;;;;;;5077370;28;20228;-63
2022/02/14 14:16:08;;;;;;;1.60;1.40;;;;;;;;;;5077305;28;20226;-63
2022/02/14 14:18:36;;;;;;;2.80;1.60;;;;;;;;;;5068124;28;20211;-63
2022/02/14 14:21:07;;;;;;;3.77;1.50;;;;;;;;;;5077164;28;20753;-63
2022/02/14 14:23:36;;;;;;;2.10;1.40;;;;;;;;;;5077039;28;20313;-63
2022/02/14 14:26:04;;;;;;;3.30;1.53;;;;;;;;;;5077495;28;20312;-63
2022/02/14 14:28:32;;;;;;;1.50;1.40;;;;;;;;;;5077173;28;20290;-63
2022/02/14 14:31:00;;;;;;;1.90;1.60;;;;;;;;;;5077203;28;20206;-63
2022/02/14 14:33:28;;;;;;;1.60;1.50;;;;;;;;;;5076934;28;20661;-63
2022/02/14 14:35:57;;;;;;;2.27;1.30;;;;;;;;;;5077275;28;20229;-63
2022/02/14 14:38:27;;;;;;;2.17;1.70;;;;;;;;;;5077220;28;20210;-63
2022/02/14 14:40:54;;;;;;;1.87;1.50;;;;;;;;;;5077295;28;20213;-63
2022/02/14 14:43:22;;;;;;;1.53;1.43;;;;;;;;;;5076928;28;20266;-63
2022/02/14 14:45:50;;;;;;;3.03;1.60;;;;;;;;;;5077192;28;20216;-63
2022/02/14 14:48:19;;;;;;;3.90;1.93;;;;;;;;;;5080964;28;20210;-62
2022/02/14 14:50:47;;;;;;;2.03;1.67;;;;;;;;;;5080707;28;20293;-62
2022/02/14 14:53:15;;;;;;;2.10;1.90;;;;;;;;;;5080761;28;20689;-63
2022/02/14 14:55:45;;;;;;;1.73;1.43;;;;;;;;;;5080579;28;20285;-63
2022/02/14 14:58:13;;;;;;;3.23;1.67;;;;;;;;;;5080393;28;20297;-63
2022/02/14 15:00:41;;;;;;;1.33;1.23;;;;;;;;;;5080434;28;20568;-63
2022/02/14 15:03:09;;;;;;;1.87;1.37;;;;;;;;;;5080321;28;20609;-63
2022/02/14 15:05:37;;;;;;;1.60;1.50;;;;;;;;;;5080336;28;20238;-63
2022/02/14 15:08:06;;;;;;;1.83;1.43;;;;;;;;;;5080659;28;20201;-63